Time,TemperatureF,DewpointF,PressureIn,WindDirection,WindDirectionDegrees,WindSpeedMPH,WindSpeedGustMPH,Humidity,HourlyPrecipIn,Conditions,Clouds,dailyrainin,SoftwareType,DateUTC
2013-01-24 00:00:00,5.0,2.7,30.12,ENE,66,0.0,0.0,90,0.00,,,0.00,Wunderground v.1.15,2013-01-24 05:00:00,
2013-01-24 00:04:00,5.3,3.0,30.11,East,100,0.0,0.0,90,0.00,,,0.00,Wunderground v.1.15,2013-01-24 05:04:00,
2013-01-24 00:06:00,5.4,3.1,30.11,East,96,0.0,0.0,90,0.00,,,0.00,Wunderground v.1.15,2013-01-24 05:06:00,
2013-01-24 00:11:00,5.7,3.4,30.11,NE,37,0.0,0.0,90,0.00,,,0.00,Wunderground v.1.15,2013-01-24 05:11:00,
2013-01-24 00:15:00,5.9,3.6,30.11,NE,44,0.0,0.0,90,0.00,,,0.00,Wunderground v.1.15,2013-01-24 05:15:00,
2013-01-24 00:20:00,6.2,3.9,30.11,ENE,68,0.0,0.0,90,0.00,,,0.00,Wunderground v.1.15,2013-01-24 05:20:00,
2013-01-24 00:25:00,6.4,4.1,30.11,ENE,60,0.0,0.0,90,0.00,,,0.00,Wunderground v.1.15,2013-01-24 05:25:00,
2013-01-24 00:30:00,6.5,4.2,30.12,NE,43,0.0,0.0,90,0.00,,,0.00,Wunderground v.1.15,2013-01-24 05:30:00,
2013-01-24 00:35:00,6.7,4.4,30.11,ENE,68,0.0,0.0,90,0.00,,,0.00,Wunderground v.1.15,2013-01-24 05:35:00,
2013-01-24 00:40:00,6.8,4.5,30.11,ENE,71,0.0,0.0,90,0.00,,,0.00,Wunderground v.1.15,2013-01-24 05:40:00,
2013-01-24 00:46:00,6.9,4.6,30.11,ENE,76,0.0,0.0,90,0.00,,,0.00,Wunderground v.1.15,2013-01-24 05:46:00,
2013-01-24 00:51:00,7.0,4.7,30.11,ENE,74,0.0,0.0,90,0.00,,,0.00,Wunderground v.1.15,2013-01-24 05:51:00,
2013-01-24 00:56:00,7.0,4.4,30.11,NNW,337,0.0,0.0,89,0.00,,,0.00,Wunderground v.1.15,2013-01-24 05:56:00,
2013-01-24 01:01:00,7.0,4.4,30.11,WSW,239,0.0,0.0,89,0.00,,,0.00,Wunderground v.1.15,2013-01-24 06:01:00,
2013-01-24 01:06:00,7.0,4.4,30.11,WSW,239,0.0,0.0,89,0.00,,,0.00,Wunderground v.1.15,2013-01-24 06:06:00,
2013-01-24 01:11:00,7.0,4.7,30.11,SE,141,0.0,0.0,90,0.00,,,0.00,Wunderground v.1.15,2013-01-24 06:11:00,
2013-01-24 01:16:00,7.1,4.8,30.11,SE,139,0.0,0.0,90,0.00,,,0.00,Wunderground v.1.15,2013-01-24 06:16:00,
2013-01-24 01:21:00,7.2,4.9,30.11,ESE,108,0.0,0.0,90,0.00,,,0.00,Wunderground v.1.15,2013-01-24 06:21:00,
2013-01-24 01:27:00,7.4,5.1,30.11,ENE,72,0.0,0.0,90,0.00,,,0.00,Wunderground v.1.15,2013-01-24 06:27:00,
2013-01-24 01:32:00,7.5,5.2,30.11,ENE,72,0.0,0.0,90,0.00,,,0.00,Wunderground v.1.15,2013-01-24 06:32:00,
2013-01-24 01:37:00,7.6,5.3,30.12,ENE,71,0.0,0.0,90,0.00,,,0.00,Wunderground v.1.15,2013-01-24 06:37:00,
2013-01-24 01:42:00,7.8,5.5,30.12,NNW,334,0.0,0.0,90,0.00,,,0.00,Wunderground v.1.15,2013-01-24 06:42:00,
2013-01-24 01:47:00,7.9,5.6,30.13,NNE,23,0.0,0.0,90,0.00,,,0.00,Wunderground v.1.15,2013-01-24 06:47:00,
2013-01-24 01:53:00,8.0,5.7,30.13,NNW,334,0.0,0.0,90,0.00,,,0.00,Wunderground v.1.15,2013-01-24 06:53:00,
2013-01-24 01:58:00,8.1,5.8,30.13,North,6,0.0,0.0,90,0.00,,,0.00,Wunderground v.1.15,2013-01-24 06:58:00,
2013-01-24 02:04:00,8.1,5.8,30.14,NNW,343,0.0,0.0,90,0.00,,,0.00,Wunderground v.1.15,2013-01-24 07:04:00,
2013-01-24 02:09:00,8.2,5.9,30.14,NNW,338,0.0,0.0,90,0.00,,,0.00,Wunderground v.1.15,2013-01-24 07:09:00,
2013-01-24 02:14:00,8.3,6.0,30.14,East,87,0.0,0.0,90,0.00,,,0.00,Wunderground v.1.15,2013-01-24 07:14:00,
2013-01-24 02:19:00,8.4,6.1,30.14,NE,44,0.0,0.0,90,0.00,,,0.00,Wunderground v.1.15,2013-01-24 07:19:00,
2013-01-24 02:25:00,8.4,6.1,30.14,NNE,12,0.0,0.0,90,0.00,,,0.00,Wunderground v.1.15,2013-01-24 07:25:00,
2013-01-24 02:30:00,8.4,6.1,30.14,NNE,12,0.0,0.0,90,0.00,,,0.00,Wunderground v.1.15,2013-01-24 07:30:00,
2013-01-24 02:35:00,8.4,6.1,30.14,NNE,12,0.0,0.0,90,0.00,,,0.00,Wunderground v.1.15,2013-01-24 07:35:00,
2013-01-24 02:40:00,8.3,6.0,30.15,NNE,12,0.0,0.0,90,0.00,,,0.00,Wunderground v.1.15,2013-01-24 07:40:00,
2013-01-24 02:45:00,8.1,5.5,30.15,NNE,12,0.0,0.0,89,0.00,,,0.00,Wunderground v.1.15,2013-01-24 07:45:00,
2013-01-24 02:50:00,7.8,5.2,30.15,NNE,12,0.0,0.0,89,0.00,,,0.00,Wunderground v.1.15,2013-01-24 07:50:00,
2013-01-24 02:56:00,7.4,4.8,30.16,NNE,12,0.0,0.0,89,0.00,,,0.00,Wunderground v.1.15,2013-01-24 07:56:00,
2013-01-24 03:01:00,7.0,4.4,30.16,NNE,12,0.0,0.0,89,0.00,,,0.00,Wunderground v.1.15,2013-01-24 08:01:00,
2013-01-24 03:06:00,6.7,3.9,30.16,North,11,0.0,0.0,88,0.00,,,0.00,Wunderground v.1.15,2013-01-24 08:06:00,
2013-01-24 03:11:00,6.4,3.6,30.16,NNE,12,0.0,0.0,88,0.00,,,0.00,Wunderground v.1.15,2013-01-24 08:11:00,
2013-01-24 03:17:00,6.1,3.3,30.16,NNE,12,0.0,0.0,88,0.00,,,0.00,Wunderground v.1.15,2013-01-24 08:17:00,
2013-01-24 03:23:00,5.8,3.0,30.16,NNE,12,0.0,0.0,88,0.00,,,0.00,Wunderground v.1.15,2013-01-24 08:23:00,
2013-01-24 03:28:00,5.6,3.1,30.16,NNE,12,0.0,0.0,89,0.00,,,0.00,Wunderground v.1.15,2013-01-24 08:28:00,
2013-01-24 03:33:00,5.5,3.0,30.16,NNE,12,0.0,0.0,89,0.00,,,0.00,Wunderground v.1.15,2013-01-24 08:33:00,
2013-01-24 03:38:00,5.2,2.4,30.17,NNE,12,0.0,0.0,88,0.00,,,0.00,Wunderground v.1.15,2013-01-24 08:38:00,
2013-01-24 03:43:00,5.0,2.2,30.17,NNE,12,0.0,0.0,88,0.00,,,0.00,Wunderground v.1.15,2013-01-24 08:43:00,
2013-01-24 03:49:00,4.7,1.9,30.17,NNE,12,0.0,0.0,88,0.00,,,0.00,Wunderground v.1.15,2013-01-24 08:49:00,
2013-01-24 03:54:00,4.4,1.6,30.17,NNE,12,0.0,0.0,88,0.00,,,0.00,Wunderground v.1.15,2013-01-24 08:54:00,
2013-01-24 03:59:00,4.1,1.3,30.18,NNE,12,0.0,0.0,88,0.00,,,0.00,Wunderground v.1.15,2013-01-24 08:59:00,
2013-01-24 04:04:00,3.9,1.1,30.18,NNE,12,0.0,0.0,88,0.00,,,0.00,Wunderground v.1.15,2013-01-24 09:04:00,
2013-01-24 04:09:00,3.7,0.9,30.19,NNE,12,0.0,0.0,88,0.00,,,0.00,Wunderground v.1.15,2013-01-24 09:09:00,
2013-01-24 04:14:00,3.5,0.7,30.19,NNE,12,0.0,0.0,88,0.00,,,0.00,Wunderground v.1.15,2013-01-24 09:14:00,
2013-01-24 04:19:00,3.3,0.5,30.19,NNE,12,0.0,0.0,88,0.00,,,0.00,Wunderground v.1.15,2013-01-24 09:19:00,
2013-01-24 04:25:00,3.2,0.4,30.19,NNE,12,0.0,0.0,88,0.00,,,0.00,Wunderground v.1.15,2013-01-24 09:25:00,
2013-01-24 04:30:00,3.1,0.3,30.20,NNE,12,0.0,0.0,88,0.00,,,0.00,Wunderground v.1.15,2013-01-24 09:30:00,
2013-01-24 04:36:00,3.0,0.3,30.20,NNE,12,0.0,0.0,88,0.00,,,0.00,Wunderground v.1.15,2013-01-24 09:36:00,
2013-01-24 04:41:00,2.9,0.2,30.20,NNE,12,0.0,0.0,88,0.00,,,0.00,Wunderground v.1.15,2013-01-24 09:41:00,
2013-01-24 04:46:00,2.7,0.0,30.20,North,11,0.0,0.0,88,0.00,,,0.00,Wunderground v.1.15,2013-01-24 09:46:00,
2013-01-24 04:51:00,2.5,-0.2,30.21,North,11,0.0,0.0,88,0.00,,,0.00,Wunderground v.1.15,2013-01-24 09:51:00,
2013-01-24 04:57:00,2.2,-0.8,30.21,North,11,0.0,0.0,87,0.00,,,0.00,Wunderground v.1.15,2013-01-24 09:57:00,
2013-01-24 05:02:00,2.0,-1.0,30.22,North,11,0.0,0.0,87,0.00,,,0.00,Wunderground v.1.15,2013-01-24 10:02:00,
2013-01-24 05:07:00,2.0,-0.7,30.22,NNE,16,0.0,0.0,88,0.00,,,0.00,Wunderground v.1.15,2013-01-24 10:07:00,
2013-01-24 05:13:00,2.0,-0.7,30.23,NNE,16,0.0,0.0,88,0.00,,,0.00,Wunderground v.1.15,2013-01-24 10:13:00,
2013-01-24 05:18:00,2.0,-0.7,30.23,NNE,16,0.0,0.0,88,0.00,,,0.00,Wunderground v.1.15,2013-01-24 10:18:00,
2013-01-24 05:24:00,2.0,-0.7,30.23,NNE,16,0.0,0.0,88,0.00,,,0.00,Wunderground v.1.15,2013-01-24 10:24:00,
2013-01-24 05:29:00,2.1,-0.6,30.24,NNE,17,0.0,0.0,88,0.00,,,0.00,Wunderground v.1.15,2013-01-24 10:29:00,
2013-01-24 05:35:00,2.2,-0.5,30.24,NNE,16,0.0,0.0,88,0.00,,,0.00,Wunderground v.1.15,2013-01-24 10:35:00,
2013-01-24 05:40:00,2.4,-0.3,30.24,NNE,16,0.0,0.0,88,0.00,,,0.00,Wunderground v.1.15,2013-01-24 10:40:00,
2013-01-24 05:46:00,2.3,-0.4,30.25,NNW,339,0.0,0.0,88,0.00,,,0.00,Wunderground v.1.15,2013-01-24 10:46:00,
2013-01-24 05:52:00,2.4,-0.3,30.25,NNW,340,0.0,0.0,88,0.00,,,0.00,Wunderground v.1.15,2013-01-24 10:52:00,
2013-01-24 05:57:00,2.4,-0.3,30.26,NNW,334,0.0,0.0,88,0.00,,,0.00,Wunderground v.1.15,2013-01-24 10:57:00,
2013-01-24 06:02:00,2.6,-0.1,30.27,WNW,283,0.0,0.0,88,0.00,,,0.00,Wunderground v.1.15,2013-01-24 11:02:00,
2013-01-24 06:07:00,2.7,0.0,30.27,WNW,283,0.0,0.0,88,0.00,,,0.00,Wunderground v.1.15,2013-01-24 11:07:00,
2013-01-24 06:13:00,2.9,0.4,30.27,WNW,288,0.0,0.0,89,0.00,,,0.00,Wunderground v.1.15,2013-01-24 11:13:00,
2013-01-24 06:18:00,3.2,0.7,30.28,WNW,288,0.0,0.0,89,0.00,,,0.00,Wunderground v.1.15,2013-01-24 11:18:00,
2013-01-24 06:23:00,3.4,0.9,30.28,WNW,288,0.0,0.0,89,0.00,,,0.00,Wunderground v.1.15,2013-01-24 11:23:00,
2013-01-24 06:28:00,3.5,1.0,30.28,WNW,288,0.0,0.0,89,0.00,,,0.00,Wunderground v.1.15,2013-01-24 11:28:00,
2013-01-24 06:33:00,3.6,1.1,30.29,WNW,288,0.0,0.0,89,0.00,,,0.00,Wunderground v.1.15,2013-01-24 11:33:00,
2013-01-24 06:38:00,3.6,1.1,30.29,WNW,288,0.0,0.0,89,0.00,,,0.00,Wunderground v.1.15,2013-01-24 11:38:00,
2013-01-24 06:44:00,3.5,0.7,30.30,WNW,288,0.0,0.0,88,0.00,,,0.00,Wunderground v.1.15,2013-01-24 11:44:00,
2013-01-24 06:49:00,3.4,0.6,30.30,WNW,288,0.0,0.0,88,0.00,,,0.00,Wunderground v.1.15,2013-01-24 11:49:00,
2013-01-24 06:54:00,3.2,0.4,30.31,WNW,288,0.0,0.0,88,0.00,,,0.00,Wunderground v.1.15,2013-01-24 11:54:00,
2013-01-24 07:00:00,3.0,0.3,30.31,WNW,288,0.0,0.0,88,0.00,,,0.00,Wunderground v.1.15,2013-01-24 12:00:00,
2013-01-24 07:05:00,3.0,0.3,30.31,WNW,288,0.0,0.0,88,0.00,,,0.00,Wunderground v.1.15,2013-01-24 12:05:00,
2013-01-24 07:10:00,3.0,0.3,30.32,WNW,288,0.0,0.0,88,0.00,,,0.00,Wunderground v.1.15,2013-01-24 12:10:00,
2013-01-24 07:15:00,3.1,0.3,30.32,WNW,288,0.0,0.0,88,0.00,,,0.00,Wunderground v.1.15,2013-01-24 12:15:00,
2013-01-24 07:20:00,3.2,0.4,30.33,WNW,288,0.0,0.0,88,0.00,,,0.00,Wunderground v.1.15,2013-01-24 12:20:00,
2013-01-24 07:26:00,3.4,0.9,30.33,WNW,290,0.0,0.0,89,0.00,,,0.00,Wunderground v.1.15,2013-01-24 12:26:00,
2013-01-24 07:31:00,3.6,1.1,30.33,WNW,290,0.0,0.0,89,0.00,,,0.00,Wunderground v.1.15,2013-01-24 12:31:00,
2013-01-24 07:36:00,3.7,1.2,30.34,WNW,290,0.0,0.0,89,0.00,,,0.00,Wunderground v.1.15,2013-01-24 12:36:00,
2013-01-24 07:41:00,3.9,1.4,30.33,WNW,290,0.0,0.0,89,0.00,,,0.00,Wunderground v.1.15,2013-01-24 12:41:00,
2013-01-24 07:46:00,3.9,1.4,30.34,WNW,302,0.0,0.0,89,0.00,,,0.00,Wunderground v.1.15,2013-01-24 12:46:00,
2013-01-24 07:51:00,4.1,1.6,30.35,West,281,0.0,0.0,89,0.00,,,0.00,Wunderground v.1.15,2013-01-24 12:51:00,
2013-01-24 07:56:00,4.1,1.6,30.35,WNW,283,0.0,0.0,89,0.00,,,0.00,Wunderground v.1.15,2013-01-24 12:56:00,
2013-01-24 08:02:00,4.1,1.6,30.35,WNW,283,0.0,0.0,89,0.00,,,0.00,Wunderground v.1.15,2013-01-24 13:02:00,
2013-01-24 08:07:00,4.1,1.3,30.36,WNW,283,0.0,0.0,88,0.00,,,0.00,Wunderground v.1.15,2013-01-24 13:07:00,
2013-01-24 08:12:00,4.0,1.2,30.36,WNW,283,0.0,0.0,88,0.00,,,0.00,Wunderground v.1.15,2013-01-24 13:12:00,
2013-01-24 08:17:00,3.8,1.0,30.36,WNW,282,0.0,0.0,88,0.00,,,0.00,Wunderground v.1.15,2013-01-24 13:17:00,
2013-01-24 08:22:00,3.7,0.9,30.37,WNW,283,0.0,0.0,88,0.00,,,0.00,Wunderground v.1.15,2013-01-24 13:22:00,
2013-01-24 08:27:00,3.7,0.9,30.37,WNW,283,0.0,0.0,88,0.00,,,0.00,Wunderground v.1.15,2013-01-24 13:27:00,
2013-01-24 08:32:00,3.7,0.9,30.38,WNW,282,0.0,0.0,88,0.00,,,0.00,Wunderground v.1.15,2013-01-24 13:32:00,
2013-01-24 08:37:00,3.8,1.0,30.38,WNW,282,0.0,0.0,88,0.00,,,0.00,Wunderground v.1.15,2013-01-24 13:37:00,
2013-01-24 08:42:00,4.0,1.2,30.39,WNW,283,0.0,0.0,88,0.00,,,0.00,Wunderground v.1.15,2013-01-24 13:42:00,
2013-01-24 08:47:00,4.5,2.0,30.39,WNW,282,0.0,0.0,89,0.00,,,0.00,Wunderground v.1.15,2013-01-24 13:47:00,
2013-01-24 08:52:00,5.2,2.7,30.39,WNW,283,0.0,0.0,89,0.00,,,0.00,Wunderground v.1.15,2013-01-24 13:52:00,
2013-01-24 08:58:00,5.5,3.0,30.40,WNW,283,0.0,0.0,89,0.00,,,0.00,Wunderground v.1.15,2013-01-24 13:58:00,
2013-01-24 09:03:00,5.7,3.2,30.40,WNW,283,0.0,0.0,89,0.00,,,0.00,Wunderground v.1.15,2013-01-24 14:03:00,
2013-01-24 09:08:00,6.2,3.9,30.40,WNW,282,0.0,0.0,90,0.00,,,0.00,Wunderground v.1.15,2013-01-24 14:08:00,
2013-01-24 09:13:00,6.7,4.4,30.41,WNW,282,0.0,0.0,90,0.00,,,0.00,Wunderground v.1.15,2013-01-24 14:13:00,
2013-01-24 09:18:00,7.2,4.9,30.41,WNW,283,0.0,0.0,90,0.00,,,0.00,Wunderground v.1.15,2013-01-24 14:18:00,
2013-01-24 09:23:00,7.9,5.6,30.41,WNW,283,0.0,0.0,90,0.00,,,0.00,Wunderground v.1.15,2013-01-24 14:23:00,
2013-01-24 09:28:00,8.5,6.2,30.42,WNW,284,0.0,0.0,90,0.00,,,0.00,Wunderground v.1.15,2013-01-24 14:28:00,
2013-01-24 09:34:00,9.2,6.9,30.42,WNW,283,0.0,0.0,90,0.00,,,0.00,Wunderground v.1.15,2013-01-24 14:34:00,
2013-01-24 09:39:00,9.9,7.6,30.42,West,276,0.0,0.0,90,0.00,,,0.00,Wunderground v.1.15,2013-01-24 14:39:00,
2013-01-24 09:45:00,10.4,8.0,30.43,West,267,0.0,0.0,90,0.00,,,0.00,Wunderground v.1.15,2013-01-24 14:45:00,
2013-01-24 09:50:00,11.5,9.4,30.43,NW,311,0.0,0.0,91,0.00,,,0.00,Wunderground v.1.15,2013-01-24 14:50:00,
2013-01-24 09:55:00,12.5,10.4,30.44,WNW,288,0.0,0.0,91,0.00,,,0.00,Wunderground v.1.15,2013-01-24 14:55:00,
2013-01-24 10:00:00,12.6,10.0,30.45,West,262,0.0,0.0,89,0.00,,,0.00,Wunderground v.1.15,2013-01-24 15:00:00,
2013-01-24 10:06:00,12.7,10.1,30.45,WNW,302,0.0,0.0,89,0.00,,,0.00,Wunderground v.1.15,2013-01-24 15:06:00,
2013-01-24 10:11:00,13.3,10.7,30.45,NW,316,0.0,0.0,89,0.00,,,0.00,Wunderground v.1.15,2013-01-24 15:11:00,
2013-01-24 10:16:00,13.5,10.6,30.45,WSW,240,0.0,0.0,88,0.00,,,0.00,Wunderground v.1.15,2013-01-24 15:16:00,
2013-01-24 10:22:00,13.7,11.1,30.46,NNW,342,0.0,0.0,89,0.00,,,0.00,Wunderground v.1.15,2013-01-24 15:22:00,
2013-01-24 10:27:00,13.8,10.9,30.46,NW,309,0.0,0.0,88,0.00,,,0.00,Wunderground v.1.15,2013-01-24 15:27:00,
2013-01-24 10:32:00,13.7,10.8,30.47,NW,326,0.0,0.0,88,0.00,,,0.00,Wunderground v.1.15,2013-01-24 15:32:00,
2013-01-24 10:37:00,13.7,10.8,30.47,WNW,300,0.0,0.0,88,0.00,,,0.00,Wunderground v.1.15,2013-01-24 15:37:00,
2013-01-24 10:42:00,13.5,10.6,30.48,SSW,197,0.0,0.0,88,0.00,,,0.00,Wunderground v.1.15,2013-01-24 15:42:00,
2013-01-24 10:47:00,13.5,10.6,30.48,WNW,302,0.0,0.0,88,0.00,,,0.00,Wunderground v.1.15,2013-01-24 15:47:00,
2013-01-24 10:52:00,13.5,10.6,30.49,WNW,297,0.0,0.0,88,0.00,,,0.00,Wunderground v.1.15,2013-01-24 15:52:00,
2013-01-24 10:58:00,13.4,10.3,30.49,WNW,303,0.0,0.0,87,0.00,,,0.00,Wunderground v.1.15,2013-01-24 15:58:00,
2013-01-24 11:03:00,13.5,10.4,30.49,WSW,248,0.0,0.0,87,0.00,,,0.00,Wunderground v.1.15,2013-01-24 16:03:00,
2013-01-24 11:08:00,13.5,10.4,30.50,WNW,293,0.0,0.0,87,0.00,,,0.00,Wunderground v.1.15,2013-01-24 16:08:00,
2013-01-24 11:14:00,13.9,10.7,30.50,NNW,343,0.0,0.0,87,0.00,,,0.00,Wunderground v.1.15,2013-01-24 16:14:00,
2013-01-24 11:19:00,13.9,10.7,30.50,West,276,0.0,0.0,87,0.00,,,0.00,Wunderground v.1.15,2013-01-24 16:19:00,
2013-01-24 11:24:00,13.6,10.2,30.50,West,271,0.0,0.0,86,0.00,,,0.00,Wunderground v.1.15,2013-01-24 16:24:00,
2013-01-24 11:30:00,13.3,9.9,30.50,NNW,330,0.0,0.0,86,0.00,,,0.00,Wunderground v.1.15,2013-01-24 16:30:00,
2013-01-24 11:35:00,13.2,9.8,30.51,NW,321,0.0,0.0,86,0.00,,,0.00,Wunderground v.1.15,2013-01-24 16:35:00,
2013-01-24 11:40:00,13.2,10.1,30.51,WNW,300,0.0,0.0,87,0.00,,,0.00,Wunderground v.1.15,2013-01-24 16:40:00,
2013-01-24 11:45:00,13.2,9.8,30.51,North,354,0.0,0.0,86,0.00,,,0.00,Wunderground v.1.15,2013-01-24 16:45:00,
2013-01-24 11:50:00,13.0,9.6,30.51,NW,304,0.0,0.0,86,0.00,,,0.00,Wunderground v.1.15,2013-01-24 16:50:00,
2013-01-24 11:55:00,13.2,9.8,30.51,NNW,336,0.0,0.0,86,0.00,,,0.00,Wunderground v.1.15,2013-01-24 16:55:00,
2013-01-24 12:00:00,13.0,9.3,30.52,NW,323,0.0,0.0,85,0.00,,,0.00,Wunderground v.1.15,2013-01-24 17:00:00,
2013-01-24 12:06:00,13.5,10.1,30.52,NW,307,0.0,0.0,86,0.00,,,0.00,Wunderground v.1.15,2013-01-24 17:06:00,
2013-01-24 12:11:00,13.5,9.6,30.52,NW,323,0.0,0.0,84,0.00,,,0.00,Wunderground v.1.15,2013-01-24 17:11:00,
2013-01-24 12:16:00,13.6,9.7,30.52,West,260,0.0,0.0,84,0.00,,,0.00,Wunderground v.1.15,2013-01-24 17:16:00,
2013-01-24 12:21:00,14.1,10.4,30.52,West,281,0.0,0.0,85,0.00,,,0.00,Wunderground v.1.15,2013-01-24 17:21:00,
2013-01-24 12:26:00,13.9,10.0,30.52,WNW,301,0.0,0.0,84,0.00,,,0.00,Wunderground v.1.15,2013-01-24 17:26:00,
2013-01-24 12:32:00,13.7,9.5,30.52,WNW,300,0.0,0.0,83,0.00,,,0.00,Wunderground v.1.15,2013-01-24 17:32:00,
2013-01-24 12:37:00,13.6,9.1,30.52,WNW,282,0.0,0.0,82,0.00,,,0.00,Wunderground v.1.15,2013-01-24 17:37:00,
2013-01-24 12:42:00,13.7,9.2,30.52,West,262,0.0,0.0,82,0.00,,,0.00,Wunderground v.1.15,2013-01-24 17:42:00,
2013-01-24 12:47:00,13.9,9.1,30.52,NNE,17,0.0,0.0,81,0.00,,,0.00,Wunderground v.1.15,2013-01-24 17:47:00,
2013-01-24 12:52:00,14.3,9.8,30.52,WNW,300,0.0,0.0,82,0.00,,,0.00,Wunderground v.1.15,2013-01-24 17:52:00,
2013-01-24 12:57:00,14.4,9.1,30.52,NW,304,0.0,0.0,79,0.00,,,0.00,Wunderground v.1.15,2013-01-24 17:57:00,
2013-01-24 13:03:00,14.4,9.4,30.52,NNW,330,0.0,0.0,80,0.00,,,0.00,Wunderground v.1.15,2013-01-24 18:03:00,
2013-01-24 13:08:00,14.2,8.9,30.52,WNW,295,0.0,0.0,79,0.00,,,0.00,Wunderground v.1.15,2013-01-24 18:08:00,
2013-01-24 13:13:00,13.7,7.8,30.52,NW,312,0.0,0.0,77,0.00,,,0.00,Wunderground v.1.15,2013-01-24 18:13:00,
2013-01-24 13:19:00,13.4,7.2,30.52,North,349,0.0,0.0,76,0.00,,,0.00,Wunderground v.1.15,2013-01-24 18:19:00,
2013-01-24 13:24:00,13.4,7.8,30.52,WSW,248,0.0,0.0,78,0.00,,,0.00,Wunderground v.1.15,2013-01-24 18:24:00,
2013-01-24 13:30:00,13.9,8.0,30.51,NW,321,0.0,0.0,77,0.00,,,0.00,Wunderground v.1.15,2013-01-24 18:30:00,
2013-01-24 13:35:00,13.9,7.4,30.52,WNW,297,0.0,0.0,75,0.00,,,0.00,Wunderground v.1.15,2013-01-24 18:35:00,
2013-01-24 13:40:00,13.4,7.0,30.51,WNW,295,0.0,0.0,75,0.00,,,0.00,Wunderground v.1.15,2013-01-24 18:40:00,
2013-01-24 13:46:00,13.1,7.0,30.51,WNW,300,0.0,0.0,76,0.00,,,0.00,Wunderground v.1.15,2013-01-24 18:46:00,
2013-01-24 13:51:00,13.1,6.7,30.52,North,5,0.0,0.0,75,0.00,,,0.00,Wunderground v.1.15,2013-01-24 18:51:00,
2013-01-24 13:57:00,13.3,6.6,30.52,NW,308,0.0,0.0,74,0.00,,,0.00,Wunderground v.1.15,2013-01-24 18:57:00,
2013-01-24 14:03:00,13.7,6.6,30.52,WNW,285,0.0,0.0,73,0.00,,,0.00,Wunderground v.1.15,2013-01-24 19:03:00,
2013-01-24 14:08:00,14.0,6.6,30.52,West,267,0.0,0.0,72,0.00,,,0.00,Wunderground v.1.15,2013-01-24 19:08:00,
2013-01-24 14:13:00,13.5,5.5,30.52,WNW,289,0.0,0.0,70,0.00,,,0.00,Wunderground v.1.15,2013-01-24 19:13:00,
2013-01-24 14:18:00,13.7,5.1,30.53,West,272,0.0,0.0,68,0.00,,,0.00,Wunderground v.1.15,2013-01-24 19:18:00,
2013-01-24 14:23:00,13.7,5.1,30.53,NNW,329,0.0,0.0,68,0.00,,,0.00,Wunderground v.1.15,2013-01-24 19:23:00,
2013-01-24 14:28:00,13.4,5.4,30.53,West,269,0.0,0.0,70,0.00,,,0.00,Wunderground v.1.15,2013-01-24 19:28:00,
2013-01-24 14:33:00,13.6,5.0,30.54,NNW,338,0.0,0.0,68,0.00,,,0.00,Wunderground v.1.15,2013-01-24 19:33:00,
2013-01-24 14:38:00,13.4,4.8,30.54,WNW,287,0.0,0.0,68,0.00,,,0.00,Wunderground v.1.15,2013-01-24 19:38:00,
2013-01-24 14:44:00,13.4,4.8,30.54,West,278,0.0,0.0,68,0.00,,,0.00,Wunderground v.1.15,2013-01-24 19:44:00,
2013-01-24 14:49:00,13.5,4.2,30.54,WNW,283,0.0,0.0,66,0.00,,,0.00,Wunderground v.1.15,2013-01-24 19:49:00,
2013-01-24 14:54:00,13.6,4.3,30.54,WNW,297,0.0,0.0,66,0.00,,,0.00,Wunderground v.1.15,2013-01-24 19:54:00,
2013-01-24 14:59:00,13.6,3.3,30.55,WNW,285,0.0,0.0,63,0.00,,,0.00,Wunderground v.1.15,2013-01-24 19:59:00,
2013-01-24 15:04:00,13.4,3.5,30.55,West,281,0.0,0.0,64,0.00,,,0.00,Wunderground v.1.15,2013-01-24 20:04:00,
2013-01-24 15:09:00,13.5,3.6,30.55,West,263,0.0,0.0,64,0.00,,,0.00,Wunderground v.1.15,2013-01-24 20:09:00,
2013-01-24 15:14:00,13.7,4.1,30.55,North,4,0.0,0.0,65,0.00,,,0.00,Wunderground v.1.15,2013-01-24 20:14:00,
2013-01-24 15:19:00,14.0,4.1,30.56,WSW,242,0.0,0.0,64,0.00,,,0.00,Wunderground v.1.15,2013-01-24 20:19:00,
2013-01-24 15:25:00,13.9,3.6,30.55,West,278,0.0,0.0,63,0.00,,,0.00,Wunderground v.1.15,2013-01-24 20:25:00,
2013-01-24 15:30:00,13.9,4.3,30.56,WSW,240,0.0,0.0,65,0.00,,,0.00,Wunderground v.1.15,2013-01-24 20:30:00,
2013-01-24 15:35:00,14.0,4.4,30.56,NNE,19,0.0,0.0,65,0.00,,,0.00,Wunderground v.1.15,2013-01-24 20:35:00,
2013-01-24 15:40:00,14.2,4.6,30.56,NW,313,0.0,0.0,65,0.00,,,0.00,Wunderground v.1.15,2013-01-24 20:40:00,
2013-01-24 15:45:00,14.1,4.5,30.56,NW,309,0.0,0.0,65,0.00,,,0.00,Wunderground v.1.15,2013-01-24 20:45:00,
2013-01-24 15:50:00,13.9,4.3,30.56,West,267,0.0,0.0,65,0.00,,,0.00,Wunderground v.1.15,2013-01-24 20:50:00,
2013-01-24 15:56:00,13.8,3.9,30.56,WNW,297,0.0,0.0,64,0.00,,,0.00,Wunderground v.1.15,2013-01-24 20:56:00,
2013-01-24 16:01:00,13.7,3.4,30.56,NW,314,0.0,0.0,63,0.00,,,0.00,Wunderground v.1.15,2013-01-24 21:01:00,
2013-01-24 16:06:00,13.6,4.0,30.56,SW,225,0.0,0.0,65,0.00,,,0.00,Wunderground v.1.15,2013-01-24 21:06:00,
2013-01-24 16:11:00,13.5,2.9,30.57,West,269,0.0,0.0,62,0.00,,,0.00,Wunderground v.1.15,2013-01-24 21:11:00,
2013-01-24 16:16:00,13.3,2.3,30.57,NNE,15,0.0,0.0,61,0.00,,,0.00,Wunderground v.1.15,2013-01-24 21:16:00,
2013-01-24 16:22:00,13.1,1.8,30.57,West,276,0.0,0.0,60,0.00,,,0.00,Wunderground v.1.15,2013-01-24 21:22:00,
2013-01-24 16:27:00,12.9,1.6,30.57,WSW,256,0.0,0.0,60,0.00,,,0.00,Wunderground v.1.15,2013-01-24 21:27:00,
2013-01-24 16:32:00,12.7,2.1,30.57,WSW,238,0.0,0.0,62,0.00,,,0.00,Wunderground v.1.15,2013-01-24 21:32:00,
2013-01-24 16:38:00,12.6,2.0,30.57,WNW,284,0.0,0.0,62,0.00,,,0.00,Wunderground v.1.15,2013-01-24 21:38:00,
2013-01-24 16:43:00,12.5,2.3,30.58,WSW,250,0.0,0.0,63,0.00,,,0.00,Wunderground v.1.15,2013-01-24 21:43:00,
2013-01-24 16:49:00,12.4,2.2,30.58,SW,222,0.0,0.0,63,0.00,,,0.00,Wunderground v.1.15,2013-01-24 21:49:00,
2013-01-24 16:54:00,12.1,1.9,30.58,West,281,0.0,0.0,63,0.00,,,0.00,Wunderground v.1.15,2013-01-24 21:54:00,
2013-01-24 16:59:00,11.8,2.0,30.58,WNW,284,0.0,0.0,64,0.00,,,0.00,Wunderground v.1.15,2013-01-24 21:59:00,
2013-01-24 17:04:00,11.6,1.8,30.58,WNW,291,0.0,0.0,64,0.00,,,0.00,Wunderground v.1.15,2013-01-24 22:04:00,
2013-01-24 17:09:00,11.4,1.9,30.58,WNW,293,0.0,0.0,65,0.00,,,0.00,Wunderground v.1.15,2013-01-24 22:09:00,
2013-01-24 17:14:00,11.1,1.9,30.58,West,274,0.0,0.0,66,0.00,,,0.00,Wunderground v.1.15,2013-01-24 22:14:00,
2013-01-24 17:20:00,10.9,1.8,30.58,West,274,0.0,0.0,66,0.00,,,0.00,Wunderground v.1.15,2013-01-24 22:20:00,
2013-01-24 17:26:00,10.8,2.0,30.58,WSW,246,0.0,0.0,67,0.00,,,0.00,Wunderground v.1.15,2013-01-24 22:26:00,
2013-01-24 17:31:00,10.5,2.6,30.57,WSW,246,0.0,0.0,70,0.00,,,0.00,Wunderground v.1.15,2013-01-24 22:31:00,
2013-01-24 17:36:00,10.1,1.9,30.58,WSW,246,0.0,0.0,69,0.00,,,0.00,Wunderground v.1.15,2013-01-24 22:36:00,
2013-01-24 17:41:00,9.8,2.0,30.58,SW,224,0.0,0.0,70,0.00,,,0.00,Wunderground v.1.15,2013-01-24 22:41:00,
2013-01-24 17:46:00,9.5,2.0,30.58,WSW,248,0.0,0.0,71,0.00,,,0.00,Wunderground v.1.15,2013-01-24 22:46:00,
2013-01-24 17:52:00,9.3,1.8,30.58,WNW,288,0.0,0.0,71,0.00,,,0.00,Wunderground v.1.15,2013-01-24 22:52:00,
2013-01-24 17:57:00,9.2,1.7,30.58,WNW,288,0.0,0.0,71,0.00,,,0.00,Wunderground v.1.15,2013-01-24 22:57:00,
2013-01-24 18:02:00,9.0,2.1,30.59,WNW,286,0.0,0.0,73,0.00,,,0.00,Wunderground v.1.15,2013-01-24 23:02:00,
2013-01-24 18:07:00,8.8,2.2,30.59,WNW,287,0.0,0.0,74,0.00,,,0.00,Wunderground v.1.15,2013-01-24 23:07:00,
2013-01-24 18:12:00,8.5,2.2,30.59,WSW,255,0.0,0.0,75,0.00,,,0.00,Wunderground v.1.15,2013-01-24 23:12:00,
2013-01-24 18:17:00,8.3,2.0,30.59,WNW,301,0.0,0.0,75,0.00,,,0.00,Wunderground v.1.15,2013-01-24 23:17:00,
2013-01-24 18:22:00,8.2,2.2,30.59,West,278,0.0,0.0,76,0.00,,,0.00,Wunderground v.1.15,2013-01-24 23:22:00,
2013-01-24 18:27:00,8.1,2.4,30.60,WSW,242,0.0,0.0,77,0.00,,,0.00,Wunderground v.1.15,2013-01-24 23:27:00,
2013-01-24 18:33:00,8.1,2.7,30.60,WSW,256,0.0,0.0,78,0.00,,,0.00,Wunderground v.1.15,2013-01-24 23:33:00,
2013-01-24 18:38:00,8.6,3.7,30.60,WSW,250,0.0,0.0,80,0.00,,,0.00,Wunderground v.1.15,2013-01-24 23:38:00,
2013-01-24 18:43:00,9.1,3.6,30.60,WNW,283,0.0,0.0,78,0.00,,,0.00,Wunderground v.1.15,2013-01-24 23:43:00,
2013-01-24 18:49:00,9.5,4.0,30.60,SW,229,0.0,0.0,78,0.00,,,0.00,Wunderground v.1.15,2013-01-24 23:49:00,
2013-01-24 18:54:00,9.7,4.2,30.60,WNW,295,0.0,0.0,78,0.00,,,0.00,Wunderground v.1.15,2013-01-24 23:54:00,
2013-01-24 18:59:00,10.0,4.2,30.60,West,266,0.0,0.0,77,0.00,,,0.00,Wunderground v.1.15,2013-01-24 23:59:00,
2013-01-24 19:04:00,10.1,4.3,30.60,NW,316,0.0,0.0,77,0.00,,,0.00,Wunderground v.1.15,2013-01-25 00:04:00,
2013-01-24 19:09:00,10.0,4.2,30.60,West,266,0.0,0.0,77,0.00,,,0.00,Wunderground v.1.15,2013-01-25 00:09:00,
2013-01-24 19:15:00,9.9,4.1,30.60,West,266,0.0,0.0,77,0.00,,,0.00,Wunderground v.1.15,2013-01-25 00:15:00,
2013-01-24 19:20:00,9.9,4.1,30.60,West,264,0.0,0.0,77,0.00,,,0.00,Wunderground v.1.15,2013-01-25 00:20:00,
2013-01-24 19:25:00,9.8,4.3,30.60,West,264,0.0,0.0,78,0.00,,,0.00,Wunderground v.1.15,2013-01-25 00:25:00,
2013-01-24 19:31:00,9.8,4.3,30.60,SW,225,0.0,0.0,78,0.00,,,0.00,Wunderground v.1.15,2013-01-25 00:31:00,
2013-01-24 19:36:00,9.6,4.4,30.60,SW,225,0.0,0.0,79,0.00,,,0.00,Wunderground v.1.15,2013-01-25 00:36:00,
2013-01-24 19:41:00,9.6,4.4,30.60,SW,226,0.0,0.0,79,0.00,,,0.00,Wunderground v.1.15,2013-01-25 00:41:00,
2013-01-24 19:46:00,9.6,4.4,30.60,SW,225,0.0,0.0,79,0.00,,,0.00,Wunderground v.1.15,2013-01-25 00:46:00,
2013-01-24 19:51:00,9.4,4.5,30.60,SW,225,0.0,0.0,80,0.00,,,0.00,Wunderground v.1.15,2013-01-25 00:51:00,
2013-01-24 19:56:00,9.2,4.6,30.60,SW,225,0.0,0.0,81,0.00,,,0.00,Wunderground v.1.15,2013-01-25 00:56:00,
2013-01-24 20:01:00,9.1,4.5,30.60,SW,225,0.0,0.0,81,0.00,,,0.00,Wunderground v.1.15,2013-01-25 01:01:00,
2013-01-24 20:06:00,8.6,4.0,30.60,SW,225,0.0,0.0,81,0.00,,,0.00,Wunderground v.1.15,2013-01-25 01:06:00,
2013-01-24 20:12:00,8.0,3.9,30.60,South,181,0.0,0.0,83,0.00,,,0.00,Wunderground v.1.15,2013-01-25 01:12:00,
2013-01-24 20:17:00,7.5,3.7,30.59,South,181,0.0,0.0,84,0.00,,,0.00,Wunderground v.1.15,2013-01-25 01:17:00,
2013-01-24 20:22:00,7.3,3.5,30.59,South,181,0.0,0.0,84,0.00,,,0.00,Wunderground v.1.15,2013-01-25 01:22:00,
2013-01-24 20:27:00,7.2,3.6,30.59,East,79,0.0,0.0,85,0.00,,,0.00,Wunderground v.1.15,2013-01-25 01:27:00,
2013-01-24 20:32:00,7.2,3.9,30.59,ENE,65,0.0,0.0,86,0.00,,,0.00,Wunderground v.1.15,2013-01-25 01:32:00,
2013-01-24 20:38:00,6.9,3.3,30.58,ENE,65,0.0,0.0,85,0.00,,,0.00,Wunderground v.1.15,2013-01-25 01:38:00,
2013-01-24 20:43:00,6.9,3.6,30.58,ENE,67,0.0,0.0,86,0.00,,,0.00,Wunderground v.1.15,2013-01-25 01:43:00,
2013-01-24 20:48:00,6.9,3.6,30.58,ENE,66,0.0,0.0,86,0.00,,,0.00,Wunderground v.1.15,2013-01-25 01:48:00,
2013-01-24 20:53:00,6.9,3.6,30.58,SW,233,0.0,0.0,86,0.00,,,0.00,Wunderground v.1.15,2013-01-25 01:53:00,
2013-01-24 20:58:00,6.9,3.6,30.58,SW,233,0.0,0.0,86,0.00,,,0.00,Wunderground v.1.15,2013-01-25 01:58:00,
2013-01-24 21:03:00,6.9,3.6,30.58,SW,233,0.0,0.0,86,0.00,,,0.00,Wunderground v.1.15,2013-01-25 02:03:00,
2013-01-24 21:08:00,6.8,3.5,30.58,SW,233,0.0,0.0,86,0.00,,,0.00,Wunderground v.1.15,2013-01-25 02:08:00,
2013-01-24 21:13:00,6.6,3.6,30.58,SW,233,0.0,0.0,87,0.00,,,0.00,Wunderground v.1.15,2013-01-25 02:13:00,
2013-01-24 21:18:00,6.7,3.7,30.58,SW,233,0.0,0.0,87,0.00,,,0.00,Wunderground v.1.15,2013-01-25 02:18:00,
2013-01-24 21:23:00,6.6,3.6,30.58,SW,233,0.0,0.0,87,0.00,,,0.00,Wunderground v.1.15,2013-01-25 02:23:00,
2013-01-24 21:29:00,6.2,3.2,30.58,SW,233,0.0,0.0,87,0.00,,,0.00,Wunderground v.1.15,2013-01-25 02:29:00,
2013-01-24 21:34:00,5.7,2.4,30.58,SW,232,0.0,0.0,86,0.00,,,0.00,Wunderground v.1.15,2013-01-25 02:34:00,
2013-01-24 21:39:00,5.3,2.0,30.58,SW,232,0.0,0.0,86,0.00,,,0.00,Wunderground v.1.15,2013-01-25 02:39:00,
2013-01-24 21:44:00,5.1,1.8,30.57,SW,232,0.0,0.0,86,0.00,,,0.00,Wunderground v.1.15,2013-01-25 02:44:00,
2013-01-24 21:49:00,4.9,1.9,30.57,SW,232,0.0,0.0,87,0.00,,,0.00,Wunderground v.1.15,2013-01-25 02:49:00,
2013-01-24 21:54:00,4.6,1.6,30.57,SW,232,0.0,0.0,87,0.00,,,0.00,Wunderground v.1.15,2013-01-25 02:54:00,
2013-01-24 22:00:00,4.1,0.8,30.57,SW,231,0.0,0.0,86,0.00,,,0.00,Wunderground v.1.15,2013-01-25 03:00:00,
2013-01-24 22:05:00,3.9,0.9,30.57,SW,231,0.0,0.0,87,0.00,,,0.00,Wunderground v.1.15,2013-01-25 03:05:00,
2013-01-24 22:10:00,3.6,0.6,30.58,SW,231,0.0,0.0,87,0.00,,,0.00,Wunderground v.1.15,2013-01-25 03:10:00,
2013-01-24 22:15:00,3.3,0.3,30.58,SE,131,0.0,0.0,87,0.00,,,0.00,Wunderground v.1.15,2013-01-25 03:15:00,
2013-01-24 22:20:00,3.1,0.1,30.57,SE,131,0.0,0.0,87,0.00,,,0.00,Wunderground v.1.15,2013-01-25 03:20:00,
2013-01-24 22:25:00,2.9,-0.1,30.58,SE,131,0.0,0.0,87,0.00,,,0.00,Wunderground v.1.15,2013-01-25 03:25:00,
2013-01-24 22:30:00,2.8,-0.2,30.57,SE,131,0.0,0.0,87,0.00,,,0.00,Wunderground v.1.15,2013-01-25 03:30:00,
2013-01-24 22:35:00,2.7,0.0,30.57,SE,131,0.0,0.0,88,0.00,,,0.00,Wunderground v.1.15,2013-01-25 03:35:00,
2013-01-24 22:40:00,2.5,-0.2,30.57,SE,131,0.0,0.0,88,0.00,,,0.00,Wunderground v.1.15,2013-01-25 03:40:00,
2013-01-24 22:45:00,2.4,-0.3,30.57,SE,132,0.0,0.0,88,0.00,,,0.00,Wunderground v.1.15,2013-01-25 03:45:00,
2013-01-24 22:50:00,2.1,-0.9,30.57,SE,132,0.0,0.0,87,0.00,,,0.00,Wunderground v.1.15,2013-01-25 03:50:00,
2013-01-24 22:55:00,1.9,-1.1,30.57,SE,132,0.0,0.0,87,0.00,,,0.00,Wunderground v.1.15,2013-01-25 03:55:00,
2013-01-24 23:01:00,1.8,-0.9,30.57,SE,132,0.0,0.0,88,0.00,,,0.00,Wunderground v.1.15,2013-01-25 04:01:00,
2013-01-24 23:06:00,1.8,-0.9,30.58,SE,133,0.0,0.0,88,0.00,,,0.00,Wunderground v.1.15,2013-01-25 04:06:00,
2013-01-24 23:12:00,1.7,-1.0,30.58,SE,132,0.0,0.0,88,0.00,,,0.00,Wunderground v.1.15,2013-01-25 04:12:00,
2013-01-24 23:17:00,1.7,-1.0,30.57,ESE,118,0.0,0.0,88,0.00,,,0.00,Wunderground v.1.15,2013-01-25 04:17:00,
2013-01-24 23:22:00,1.5,-1.2,30.58,ESE,118,0.0,0.0,88,0.00,,,0.00,Wunderground v.1.15,2013-01-25 04:22:00,
2013-01-24 23:27:00,1.3,-1.7,30.58,ESE,119,0.0,0.0,87,0.00,,,0.00,Wunderground v.1.15,2013-01-25 04:27:00,
2013-01-24 23:32:00,1.1,-1.9,30.59,ESE,118,0.0,0.0,87,0.00,,,0.00,Wunderground v.1.15,2013-01-25 04:32:00,
2013-01-24 23:37:00,0.9,-2.1,30.58,ESE,118,0.0,0.0,87,0.00,,,0.00,Wunderground v.1.15,2013-01-25 04:37:00,
2013-01-24 23:43:00,0.8,-2.2,30.58,ESE,118,0.0,0.0,87,0.00,,,0.00,Wunderground v.1.15,2013-01-25 04:43:00,
2013-01-24 23:48:00,0.6,-2.4,30.58,ESE,118,0.0,0.0,87,0.00,,,0.00,Wunderground v.1.15,2013-01-25 04:48:00,
2013-01-24 23:54:00,0.3,-2.7,30.57,ESE,119,0.0,0.0,87,0.00,,,0.00,Wunderground v.1.15,2013-01-25 04:54:00,
2013-01-24 23:59:00,0.1,-2.9,30.57,ESE,119,0.0,0.0,87,0.00,,,0.00,Wunderground v.1.15,2013-01-25 04:59:00,